sensor_id;sensor_type;location;lat;lon;timestamp;temperature;humidity
71647;SHT31;59706;45.634;11.704;2023-04-05T00:01:01;8.55;46.97
71647;SHT31;59706;45.634;11.704;2023-04-05T00:03:31;8.56;47.02
71647;SHT31;59706;45.634;11.704;2023-04-05T00:05:59;8.59;46.84
71647;SHT31;59706;45.634;11.704;2023-04-05T00:08:29;8.59;46.46
71647;SHT31;59706;45.634;11.704;2023-04-05T00:10:57;8.60;46.47
71647;SHT31;59706;45.634;11.704;2023-04-05T00:13:25;8.60;46.46
71647;SHT31;59706;45.634;11.704;2023-04-05T00:15:52;8.60;46.27
71647;SHT31;59706;45.634;11.704;2023-04-05T00:18:22;8.57;46.27
71647;SHT31;59706;45.634;11.704;2023-04-05T00:20:50;8.51;46.35
71647;SHT31;59706;45.634;11.704;2023-04-05T00:23:19;8.49;46.38
71647;SHT31;59706;45.634;11.704;2023-04-05T00:25:47;8.51;46.37
71647;SHT31;59706;45.634;11.704;2023-04-05T00:28:14;8.48;46.51
71647;SHT31;59706;45.634;11.704;2023-04-05T00:30:42;8.49;46.49
71647;SHT31;59706;45.634;11.704;2023-04-05T00:33:13;8.43;46.34
71647;SHT31;59706;45.634;11.704;2023-04-05T00:35:41;8.48;46.32
71647;SHT31;59706;45.634;11.704;2023-04-05T00:38:08;8.52;46.25
71647;SHT31;59706;45.634;11.704;2023-04-05T00:40:36;8.51;46.17
71647;SHT31;59706;45.634;11.704;2023-04-05T00:43:04;8.54;45.86
71647;SHT31;59706;45.634;11.704;2023-04-05T00:45:31;8.54;46.14
71647;SHT31;59706;45.634;11.704;2023-04-05T00:47:59;8.55;45.87
71647;SHT31;59706;45.634;11.704;2023-04-05T00:50:27;8.52;45.64
71647;SHT31;59706;45.634;11.704;2023-04-05T00:52:55;8.52;45.49
71647;SHT31;59706;45.634;11.704;2023-04-05T00:55:23;8.55;45.42
71647;SHT31;59706;45.634;11.704;2023-04-05T00:57:51;8.59;45.25
71647;SHT31;59706;45.634;11.704;2023-04-05T01:00:22;8.63;45.01
71647;SHT31;59706;45.634;11.704;2023-04-05T01:02:51;8.64;45.01
71647;SHT31;59706;45.634;11.704;2023-04-05T01:11:38;8.50;45.71
71647;SHT31;59706;45.634;11.704;2023-04-05T01:14:06;8.54;45.80
71647;SHT31;59706;45.634;11.704;2023-04-05T01:16:34;8.56;45.76
71647;SHT31;59706;45.634;11.704;2023-04-05T01:19:01;8.54;45.49
71647;SHT31;59706;45.634;11.704;2023-04-05T01:37:40;8.56;45.69
71647;SHT31;59706;45.634;11.704;2023-04-05T01:40:10;8.60;45.88
71647;SHT31;59706;45.634;11.704;2023-04-05T01:42:37;8.61;45.70
71647;SHT31;59706;45.634;11.704;2023-04-05T01:45:05;8.60;45.76
71647;SHT31;59706;45.634;11.704;2023-04-05T01:47:35;8.66;45.69
71647;SHT31;59706;45.634;11.704;2023-04-05T01:50:02;8.71;45.74
71647;SHT31;59706;45.634;11.704;2023-04-05T01:52:33;8.80;45.77
71647;SHT31;59706;45.634;11.704;2023-04-05T01:55:01;8.83;45.73
71647;SHT31;59706;45.634;11.704;2023-04-05T01:57:29;8.88;45.51
71647;SHT31;59706;45.634;11.704;2023-04-05T01:59:57;8.99;45.57
71647;SHT31;59706;45.634;11.704;2023-04-05T02:02:25;9.05;45.58
71647;SHT31;59706;45.634;11.704;2023-04-05T02:04:53;9.03;45.54
71647;SHT31;59706;45.634;11.704;2023-04-05T02:07:21;8.99;45.63
71647;SHT31;59706;45.634;11.704;2023-04-05T02:09:49;9.03;45.69
71647;SHT31;59706;45.634;11.704;2023-04-05T02:12:20;9.09;45.53
71647;SHT31;59706;45.634;11.704;2023-04-05T02:14:47;9.17;45.39
71647;SHT31;59706;45.634;11.704;2023-04-05T02:17:16;9.21;45.45
71647;SHT31;59706;45.634;11.704;2023-04-05T02:19:44;9.22;45.46
71647;SHT31;59706;45.634;11.704;2023-04-05T02:22:12;9.18;45.79
71647;SHT31;59706;45.634;11.704;2023-04-05T02:24:39;9.14;46.00
71647;SHT31;59706;45.634;11.704;2023-04-05T02:27:07;9.13;46.20
71647;SHT31;59706;45.634;11.704;2023-04-05T02:29:35;9.12;46.17
71647;SHT31;59706;45.634;11.704;2023-04-05T02:32:03;9.11;46.11
71647;SHT31;59706;45.634;11.704;2023-04-05T02:34:32;9.10;46.11
71647;SHT31;59706;45.634;11.704;2023-04-05T02:37:01;9.11;45.96
71647;SHT31;59706;45.634;11.704;2023-04-05T02:39:28;9.11;45.79
71647;SHT31;59706;45.634;11.704;2023-04-05T02:41:55;9.13;45.98
71647;SHT31;59706;45.634;11.704;2023-04-05T02:44:23;9.17;46.19
71647;SHT31;59706;45.634;11.704;2023-04-05T02:46:50;9.20;46.11
71647;SHT31;59706;45.634;11.704;2023-04-05T02:49:18;9.16;46.24
71647;SHT31;59706;45.634;11.704;2023-04-05T02:51:46;9.11;46.00
71647;SHT31;59706;45.634;11.704;2023-04-05T02:54:13;9.11;46.09
71647;SHT31;59706;45.634;11.704;2023-04-05T02:56:41;9.09;46.00
71647;SHT31;59706;45.634;11.704;2023-04-05T02:59:08;9.10;45.73
71647;SHT31;59706;45.634;11.704;2023-04-05T03:01:37;9.09;45.56
71647;SHT31;59706;45.634;11.704;2023-04-05T03:04:08;9.09;45.73
71647;SHT31;59706;45.634;11.704;2023-04-05T03:06:38;9.09;45.57
71647;SHT31;59706;45.634;11.704;2023-04-05T03:09:13;9.10;45.52
71647;SHT31;59706;45.634;11.704;2023-04-05T03:11:40;9.08;45.62
71647;SHT31;59706;45.634;11.704;2023-04-05T03:14:08;9.10;45.81
71647;SHT31;59706;45.634;11.704;2023-04-05T03:16:36;9.13;45.79
71647;SHT31;59706;45.634;11.704;2023-04-05T03:19:03;9.13;45.96
71647;SHT31;59706;45.634;11.704;2023-04-05T03:21:31;9.07;45.92
71647;SHT31;59706;45.634;11.704;2023-04-05T03:23:59;9.00;45.75
71647;SHT31;59706;45.634;11.704;2023-04-05T03:26:27;8.96;45.66
71647;SHT31;59706;45.634;11.704;2023-04-05T03:28:54;8.93;45.60
71647;SHT31;59706;45.634;11.704;2023-04-05T03:31:22;8.98;45.38
71647;SHT31;59706;45.634;11.704;2023-04-05T03:33:50;8.99;45.30
71647;SHT31;59706;45.634;11.704;2023-04-05T03:36:17;9.03;45.17
71647;SHT31;59706;45.634;11.704;2023-04-05T03:38:45;9.00;44.98
71647;SHT31;59706;45.634;11.704;2023-04-05T03:41:14;9.03;45.01
71647;SHT31;59706;45.634;11.704;2023-04-05T03:43:42;9.06;44.80
71647;SHT31;59706;45.634;11.704;2023-04-05T03:46:09;9.06;44.64
71647;SHT31;59706;45.634;11.704;2023-04-05T03:48:36;9.05;44.75
71647;SHT31;59706;45.634;11.704;2023-04-05T03:51:04;8.97;44.66
71647;SHT31;59706;45.634;11.704;2023-04-05T03:53:32;8.92;44.70
71647;SHT31;59706;45.634;11.704;2023-04-05T03:55:59;8.90;44.93
71647;SHT31;59706;45.634;11.704;2023-04-05T03:58:26;8.89;44.94
71647;SHT31;59706;45.634;11.704;2023-04-05T04:00:54;8.92;44.95
71647;SHT31;59706;45.634;11.704;2023-04-05T04:03:21;8.89;45.10
71647;SHT31;59706;45.634;11.704;2023-04-05T04:05:50;8.90;45.19
71647;SHT31;59706;45.634;11.704;2023-04-05T04:08:17;8.89;44.98
71647;SHT31;59706;45.634;11.704;2023-04-05T04:10:45;8.88;44.73
71647;SHT31;59706;45.634;11.704;2023-04-05T04:13:12;8.88;44.49
71647;SHT31;59706;45.634;11.704;2023-04-05T04:15:39;8.87;44.49
71647;SHT31;59706;45.634;11.704;2023-04-05T04:18:07;8.87;44.50
71647;SHT31;59706;45.634;11.704;2023-04-05T04:20:34;8.87;44.67
71647;SHT31;59706;45.634;11.704;2023-04-05T04:23:25;8.86;44.53
71647;SHT31;59706;45.634;11.704;2023-04-05T04:25:52;8.83;44.43
71647;SHT31;59706;45.634;11.704;2023-04-05T04:28:20;8.76;44.35
71647;SHT31;59706;45.634;11.704;2023-04-05T04:30:49;8.66;44.45
71647;SHT31;59706;45.634;11.704;2023-04-05T04:33:17;8.61;44.18
71647;SHT31;59706;45.634;11.704;2023-04-05T04:35:44;8.56;44.41
71647;SHT31;59706;45.634;11.704;2023-04-05T04:38:12;8.51;44.59
71647;SHT31;59706;45.634;11.704;2023-04-05T04:40:43;8.49;44.48
71647;SHT31;59706;45.634;11.704;2023-04-05T04:43:17;8.47;44.58
71647;SHT31;59706;45.634;11.704;2023-04-05T04:45:51;8.43;44.30
71647;SHT31;59706;45.634;11.704;2023-04-05T04:48:19;8.36;44.67
71647;SHT31;59706;45.634;11.704;2023-04-05T04:50:47;8.30;44.86
71647;SHT31;59706;45.634;11.704;2023-04-05T04:53:14;8.31;44.58
71647;SHT31;59706;45.634;11.704;2023-04-05T04:55:43;8.37;44.64
71647;SHT31;59706;45.634;11.704;2023-04-05T04:58:14;8.46;44.36
71647;SHT31;59706;45.634;11.704;2023-04-05T05:00:42;8.50;44.16
71647;SHT31;59706;45.634;11.704;2023-04-05T05:03:09;8.55;44.31
71647;SHT31;59706;45.634;11.704;2023-04-05T05:05:43;8.56;44.41
71647;SHT31;59706;45.634;11.704;2023-04-05T05:08:10;8.58;44.35
71647;SHT31;59706;45.634;11.704;2023-04-05T05:10:37;8.55;44.47
71647;SHT31;59706;45.634;11.704;2023-04-05T05:13:10;8.49;44.76
71647;SHT31;59706;45.634;11.704;2023-04-05T05:15:38;8.49;45.17
71647;SHT31;59706;45.634;11.704;2023-04-05T05:18:06;8.42;45.24
71647;SHT31;59706;45.634;11.704;2023-04-05T05:20:33;8.40;45.29
71647;SHT31;59706;45.634;11.704;2023-04-05T05:23:01;8.31;45.67
71647;SHT31;59706;45.634;11.704;2023-04-05T05:25:29;8.17;46.14
71647;SHT31;59706;45.634;11.704;2023-04-05T05:27:57;8.12;46.57
71647;SHT31;59706;45.634;11.704;2023-04-05T05:30:25;8.15;46.64
71647;SHT31;59706;45.634;11.704;2023-04-05T05:32:52;8.24;46.79
71647;SHT31;59706;45.634;11.704;2023-04-05T05:35:21;8.31;46.84
71647;SHT31;59706;45.634;11.704;2023-04-05T05:37:48;8.35;46.97
71647;SHT31;59706;45.634;11.704;2023-04-05T05:40:17;8.51;46.82
71647;SHT31;59706;45.634;11.704;2023-04-05T05:42:45;8.63;46.59
71647;SHT31;59706;45.634;11.704;2023-04-05T05:45:12;8.71;46.37
71647;SHT31;59706;45.634;11.704;2023-04-05T05:47:39;8.77;46.21
71647;SHT31;59706;45.634;11.704;2023-04-05T05:50:06;8.83;46.17
71647;SHT31;59706;45.634;11.704;2023-04-05T05:52:37;8.93;46.01
71647;SHT31;59706;45.634;11.704;2023-04-05T05:55:04;9.06;45.70
71647;SHT31;59706;45.634;11.704;2023-04-05T05:57:34;9.28;45.33
71647;SHT31;59706;45.634;11.704;2023-04-05T06:00:02;9.50;44.72
71647;SHT31;59706;45.634;11.704;2023-04-05T06:02:34;9.71;44.18
71647;SHT31;59706;45.634;11.704;2023-04-05T06:05:01;9.94;44.06
71647;SHT31;59706;45.634;11.704;2023-04-05T06:07:33;10.15;44.00
71647;SHT31;59706;45.634;11.704;2023-04-05T06:10:02;10.16;43.43
71647;SHT31;59706;45.634;11.704;2023-04-05T06:12:30;10.29;42.72
71647;SHT31;59706;45.634;11.704;2023-04-05T06:14:57;10.50;42.51
71647;SHT31;59706;45.634;11.704;2023-04-05T06:17:26;10.74;42.19
71647;SHT31;59706;45.634;11.704;2023-04-05T06:19:53;10.96;42.08
71647;SHT31;59706;45.634;11.704;2023-04-05T06:22:20;11.19;41.85
71647;SHT31;59706;45.634;11.704;2023-04-05T06:24:47;11.52;41.63
71647;SHT31;59706;45.634;11.704;2023-04-05T06:27:14;11.81;40.90
71647;SHT31;59706;45.634;11.704;2023-04-05T06:29:41;11.94;40.53
71647;SHT31;59706;45.634;11.704;2023-04-05T06:32:08;11.83;40.40
71647;SHT31;59706;45.634;11.704;2023-04-05T06:34:36;11.81;40.29
71647;SHT31;59706;45.634;11.704;2023-04-05T06:37:03;12.10;40.06
71647;SHT31;59706;45.634;11.704;2023-04-05T06:39:30;12.42;39.37
71647;SHT31;59706;45.634;11.704;2023-04-05T06:41:58;12.80;38.52
71647;SHT31;59706;45.634;11.704;2023-04-05T06:44:25;13.15;37.51
71647;SHT31;59706;45.634;11.704;2023-04-05T06:46:52;13.42;36.48
71647;SHT31;59706;45.634;11.704;2023-04-05T06:49:19;13.73;36.26
71647;SHT31;59706;45.634;11.704;2023-04-05T06:51:48;14.03;35.37
71647;SHT31;59706;45.634;11.704;2023-04-05T06:54:15;14.30;35.31
71647;SHT31;59706;45.634;11.704;2023-04-05T06:56:42;14.50;34.88
71647;SHT31;59706;45.634;11.704;2023-04-05T06:59:09;14.83;34.39
71647;SHT31;59706;45.634;11.704;2023-04-05T07:01:36;15.11;33.83
71647;SHT31;59706;45.634;11.704;2023-04-05T07:04:03;15.39;33.40
71647;SHT31;59706;45.634;11.704;2023-04-05T07:06:31;15.55;32.83
71647;SHT31;59706;45.634;11.704;2023-04-05T07:09:00;15.73;31.68
71647;SHT31;59706;45.634;11.704;2023-04-05T07:11:27;15.84;31.85
71647;SHT31;59706;45.634;11.704;2023-04-05T07:13:56;16.06;31.32
71647;SHT31;59706;45.634;11.704;2023-04-05T07:16:25;16.29;31.54
71647;SHT31;59706;45.634;11.704;2023-04-05T07:18:52;16.43;30.37
71647;SHT31;59706;45.634;11.704;2023-04-05T07:21:21;16.63;29.66
71647;SHT31;59706;45.634;11.704;2023-04-05T07:23:48;16.64;29.56
71647;SHT31;59706;45.634;11.704;2023-04-05T07:26:17;16.77;30.43
71647;SHT31;59706;45.634;11.704;2023-04-05T07:28:44;16.92;30.49
71647;SHT31;59706;45.634;11.704;2023-04-05T07:31:13;16.84;29.20
71647;SHT31;59706;45.634;11.704;2023-04-05T07:33:40;16.44;29.66
71647;SHT31;59706;45.634;11.704;2023-04-05T07:36:08;16.14;30.79
71647;SHT31;59706;45.634;11.704;2023-04-05T07:38:36;15.91;31.65
71647;SHT31;59706;45.634;11.704;2023-04-05T07:41:05;15.73;31.19
71647;SHT31;59706;45.634;11.704;2023-04-05T07:43:33;15.36;31.28
71647;SHT31;59706;45.634;11.704;2023-04-05T07:46:01;15.05;32.00
71647;SHT31;59706;45.634;11.704;2023-04-05T07:48:29;14.84;31.47
71647;SHT31;59706;45.634;11.704;2023-04-05T07:51:01;14.65;32.77
71647;SHT31;59706;45.634;11.704;2023-04-05T07:53:32;14.66;32.62
71647;SHT31;59706;45.634;11.704;2023-04-05T07:56:05;14.65;32.48
71647;SHT31;59706;45.634;11.704;2023-04-05T07:58:53;14.61;32.59
71647;SHT31;59706;45.634;11.704;2023-04-05T08:01:20;14.50;32.59
71647;SHT31;59706;45.634;11.704;2023-04-05T08:03:51;14.32;31.84
71647;SHT31;59706;45.634;11.704;2023-04-05T08:06:19;14.20;32.62
71647;SHT31;59706;45.634;11.704;2023-04-05T08:08:46;14.18;31.60
71647;SHT31;59706;45.634;11.704;2023-04-05T08:11:13;14.09;31.12
71647;SHT31;59706;45.634;11.704;2023-04-05T08:13:40;14.00;30.42
71647;SHT31;59706;45.634;11.704;2023-04-05T08:16:08;13.98;30.39
71647;SHT31;59706;45.634;11.704;2023-04-05T08:18:36;13.88;30.37
71647;SHT31;59706;45.634;11.704;2023-04-05T08:21:03;13.84;30.14
71647;SHT31;59706;45.634;11.704;2023-04-05T08:23:30;13.85;29.78
71647;SHT31;59706;45.634;11.704;2023-04-05T08:25:57;13.84;31.22
71647;SHT31;59706;45.634;11.704;2023-04-05T08:28:24;13.81;30.39
71647;SHT31;59706;45.634;11.704;2023-04-05T08:32:07;13.49;29.57
71647;SHT31;59706;45.634;11.704;2023-04-05T08:34:34;13.29;29.79
71647;SHT31;59706;45.634;11.704;2023-04-05T08:37:02;13.22;30.59
71647;SHT31;59706;45.634;11.704;2023-04-05T08:39:29;13.10;30.87
71647;SHT31;59706;45.634;11.704;2023-04-05T08:42:02;13.12;30.66
71647;SHT31;59706;45.634;11.704;2023-04-05T08:44:38;13.26;30.63
71647;SHT31;59706;45.634;11.704;2023-04-05T08:47:07;13.18;30.33
71647;SHT31;59706;45.634;11.704;2023-04-05T08:49:42;12.95;30.57
71647;SHT31;59706;45.634;11.704;2023-04-05T08:52:09;12.78;30.78
71647;SHT31;59706;45.634;11.704;2023-04-05T08:54:38;12.77;31.23
71647;SHT31;59706;45.634;11.704;2023-04-05T08:57:05;12.80;31.20
71647;SHT31;59706;45.634;11.704;2023-04-05T08:59:35;12.76;30.67
71647;SHT31;59706;45.634;11.704;2023-04-05T09:02:23;12.71;30.79
71647;SHT31;59706;45.634;11.704;2023-04-05T09:04:51;12.65;31.59
71647;SHT31;59706;45.634;11.704;2023-04-05T09:07:19;12.82;31.83
71647;SHT31;59706;45.634;11.704;2023-04-05T09:09:51;12.95;31.07
71647;SHT31;59706;45.634;11.704;2023-04-05T09:12:21;13.04;31.32
71647;SHT31;59706;45.634;11.704;2023-04-05T09:14:49;12.96;31.26
71647;SHT31;59706;45.634;11.704;2023-04-05T09:17:17;12.98;31.85
71647;SHT31;59706;45.634;11.704;2023-04-05T09:19:44;13.05;31.40
71647;SHT31;59706;45.634;11.704;2023-04-05T09:22:14;12.96;30.93
71647;SHT31;59706;45.634;11.704;2023-04-05T09:24:43;12.88;31.26
71647;SHT31;59706;45.634;11.704;2023-04-05T09:27:12;13.00;31.61
71647;SHT31;59706;45.634;11.704;2023-04-05T09:30:07;13.11;31.74
71647;SHT31;59706;45.634;11.704;2023-04-05T09:32:51;13.14;31.68
71647;SHT31;59706;45.634;11.704;2023-04-05T09:35:26;13.31;32.43
71647;SHT31;59706;45.634;11.704;2023-04-05T09:38:00;13.46;31.75
71647;SHT31;59706;45.634;11.704;2023-04-05T09:40:46;13.37;31.67
71647;SHT31;59706;45.634;11.704;2023-04-05T09:46:04;13.32;32.14
71647;SHT31;59706;45.634;11.704;2023-04-05T09:48:45;13.45;32.40
71647;SHT31;59706;45.634;11.704;2023-04-05T09:51:16;13.48;32.34
71647;SHT31;59706;45.634;11.704;2023-04-05T09:56:53;13.50;31.53
71647;SHT31;59706;45.634;11.704;2023-04-05T09:59:21;13.35;31.33
71647;SHT31;59706;45.634;11.704;2023-04-05T10:01:50;13.23;31.50
71647;SHT31;59706;45.634;11.704;2023-04-05T10:04:18;13.16;31.56
71647;SHT31;59706;45.634;11.704;2023-04-05T10:06:47;13.14;32.10
71647;SHT31;59706;45.634;11.704;2023-04-05T10:09:14;13.28;32.68
71647;SHT31;59706;45.634;11.704;2023-04-05T10:11:43;13.48;32.46
71647;SHT31;59706;45.634;11.704;2023-04-05T10:14:10;13.53;31.38
71647;SHT31;59706;45.634;11.704;2023-04-05T10:16:42;13.55;30.86
71647;SHT31;59706;45.634;11.704;2023-04-05T10:25:49;14.06;32.72
71647;SHT31;59706;45.634;11.704;2023-04-05T10:30:58;14.27;31.89
71647;SHT31;59706;45.634;11.704;2023-04-05T10:33:46;14.23;31.43
71647;SHT31;59706;45.634;11.704;2023-04-05T10:39:12;14.08;31.83
71647;SHT31;59706;45.634;11.704;2023-04-05T10:41:47;14.13;32.23
71647;SHT31;59706;45.634;11.704;2023-04-05T10:44:45;14.31;32.57
71647;SHT31;59706;45.634;11.704;2023-04-05T10:47:19;14.23;32.02
71647;SHT31;59706;45.634;11.704;2023-04-05T10:49:52;14.09;31.99
71647;SHT31;59706;45.634;11.704;2023-04-05T10:52:21;14.11;31.90
71647;SHT31;59706;45.634;11.704;2023-04-05T10:54:49;13.98;31.63
71647;SHT31;59706;45.634;11.704;2023-04-05T10:57:18;13.82;31.97
71647;SHT31;59706;45.634;11.704;2023-04-05T10:59:46;13.70;31.57
71647;SHT31;59706;45.634;11.704;2023-04-05T11:02:15;13.55;31.65
71647;SHT31;59706;45.634;11.704;2023-04-05T11:04:43;13.65;32.00
71647;SHT31;59706;45.634;11.704;2023-04-05T11:07:15;13.78;32.42
71647;SHT31;59706;45.634;11.704;2023-04-05T11:10:05;13.83;31.64
71647;SHT31;59706;45.634;11.704;2023-04-05T11:18:09;13.94;31.42
71647;SHT31;59706;45.634;11.704;2023-04-05T11:20:43;13.89;31.82
71647;SHT31;59706;45.634;11.704;2023-04-05T11:23:16;13.74;31.76
71647;SHT31;59706;45.634;11.704;2023-04-05T11:25:46;13.84;32.08
71647;SHT31;59706;45.634;11.704;2023-04-05T11:28:21;13.93;31.78
71647;SHT31;59706;45.634;11.704;2023-04-05T11:30:53;13.96;31.31
71647;SHT31;59706;45.634;11.704;2023-04-05T11:36:06;14.09;31.87
71647;SHT31;59706;45.634;11.704;2023-04-05T11:38:35;14.20;31.06
71647;SHT31;59706;45.634;11.704;2023-04-05T11:41:06;14.14;31.20
71647;SHT31;59706;45.634;11.704;2023-04-05T11:43:43;14.19;31.96
71647;SHT31;59706;45.634;11.704;2023-04-05T11:46:11;14.29;31.11
71647;SHT31;59706;45.634;11.704;2023-04-05T11:48:43;14.40;31.76
71647;SHT31;59706;45.634;11.704;2023-04-05T11:51:15;14.45;31.15
71647;SHT31;59706;45.634;11.704;2023-04-05T11:53:48;14.53;31.58
71647;SHT31;59706;45.634;11.704;2023-04-05T11:56:15;14.69;31.31
71647;SHT31;59706;45.634;11.704;2023-04-05T11:58:44;14.76;31.96
71647;SHT31;59706;45.634;11.704;2023-04-05T12:01:11;14.94;32.33
71647;SHT31;59706;45.634;11.704;2023-04-05T12:03:39;14.95;31.27
71647;SHT31;59706;45.634;11.704;2023-04-05T12:06:07;14.95;31.34
71647;SHT31;59706;45.634;11.704;2023-04-05T12:08:38;14.90;31.17
71647;SHT31;59706;45.634;11.704;2023-04-05T12:11:10;14.90;31.30
71647;SHT31;59706;45.634;11.704;2023-04-05T12:13:37;14.91;31.42
71647;SHT31;59706;45.634;11.704;2023-04-05T12:16:25;14.87;31.19
71647;SHT31;59706;45.634;11.704;2023-04-05T12:19:14;14.78;30.36
71647;SHT31;59706;45.634;11.704;2023-04-05T12:22:01;14.69;30.28
71647;SHT31;59706;45.634;11.704;2023-04-05T12:24:49;14.61;30.67
71647;SHT31;59706;45.634;11.704;2023-04-05T12:27:35;14.72;30.60
71647;SHT31;59706;45.634;11.704;2023-04-05T12:30:03;14.66;30.18
71647;SHT31;59706;45.634;11.704;2023-04-05T12:33:00;14.64;29.61
71647;SHT31;59706;45.634;11.704;2023-04-05T12:35:33;14.71;30.30
71647;SHT31;59706;45.634;11.704;2023-04-05T12:38:00;14.75;30.35
71647;SHT31;59706;45.634;11.704;2023-04-05T12:40:29;14.74;29.65
71647;SHT31;59706;45.634;11.704;2023-04-05T12:43:05;14.64;29.26
71647;SHT31;59706;45.634;11.704;2023-04-05T12:45:33;14.66;29.01
71647;SHT31;59706;45.634;11.704;2023-04-05T12:48:06;14.72;29.33
71647;SHT31;59706;45.634;11.704;2023-04-05T12:50:42;14.76;29.19
71647;SHT31;59706;45.634;11.704;2023-04-05T12:53:17;14.78;30.04
71647;SHT31;59706;45.634;11.704;2023-04-05T12:55:52;14.80;29.81
71647;SHT31;59706;45.634;11.704;2023-04-05T12:58:21;14.74;29.16
71647;SHT31;59706;45.634;11.704;2023-04-05T13:00:58;14.81;29.11
71647;SHT31;59706;45.634;11.704;2023-04-05T13:03:26;14.90;29.89
71647;SHT31;59706;45.634;11.704;2023-04-05T13:05:53;14.86;30.55
71647;SHT31;59706;45.634;11.704;2023-04-05T13:08:21;14.82;30.81
71647;SHT31;59706;45.634;11.704;2023-04-05T13:10:48;14.68;30.90
71647;SHT31;59706;45.634;11.704;2023-04-05T13:13:16;14.67;30.89
71647;SHT31;59706;45.634;11.704;2023-04-05T13:15:46;14.71;30.45
71647;SHT31;59706;45.634;11.704;2023-04-05T13:18:15;14.73;30.73
71647;SHT31;59706;45.634;11.704;2023-04-05T13:20:42;14.87;31.31
71647;SHT31;59706;45.634;11.704;2023-04-05T13:23:09;15.06;31.41
71647;SHT31;59706;45.634;11.704;2023-04-05T13:25:37;15.10;30.65
71647;SHT31;59706;45.634;11.704;2023-04-05T13:28:06;15.07;30.19
71647;SHT31;59706;45.634;11.704;2023-04-05T13:30:33;15.01;29.94
71647;SHT31;59706;45.634;11.704;2023-04-05T13:33:00;15.07;30.56
71647;SHT31;59706;45.634;11.704;2023-04-05T13:35:28;15.19;29.89
71647;SHT31;59706;45.634;11.704;2023-04-05T13:37:55;14.96;29.32
71647;SHT31;59706;45.634;11.704;2023-04-05T13:40:22;14.92;29.70
71647;SHT31;59706;45.634;11.704;2023-04-05T13:42:50;14.97;29.69
71647;SHT31;59706;45.634;11.704;2023-04-05T13:45:18;14.89;29.08
71647;SHT31;59706;45.634;11.704;2023-04-05T13:47:46;14.81;29.82
71647;SHT31;59706;45.634;11.704;2023-04-05T13:50:13;14.90;30.24
71647;SHT31;59706;45.634;11.704;2023-04-05T13:52:41;14.90;30.24
71647;SHT31;59706;45.634;11.704;2023-04-05T13:55:09;14.83;30.50
71647;SHT31;59706;45.634;11.704;2023-04-05T13:57:36;14.88;30.78
71647;SHT31;59706;45.634;11.704;2023-04-05T14:00:04;14.98;31.30
71647;SHT31;59706;45.634;11.704;2023-04-05T14:02:39;15.15;31.42
71647;SHT31;59706;45.634;11.704;2023-04-05T14:05:08;15.21;31.26
71647;SHT31;59706;45.634;11.704;2023-04-05T14:07:35;15.24;30.94
71647;SHT31;59706;45.634;11.704;2023-04-05T14:10:03;15.30;30.61
71647;SHT31;59706;45.634;11.704;2023-04-05T14:12:35;15.18;29.95
71647;SHT31;59706;45.634;11.704;2023-04-05T14:15:04;15.01;30.13
71647;SHT31;59706;45.634;11.704;2023-04-05T14:17:36;14.92;30.14
71647;SHT31;59706;45.634;11.704;2023-04-05T14:20:03;14.80;30.45
71647;SHT31;59706;45.634;11.704;2023-04-05T14:22:34;14.78;30.25
71647;SHT31;59706;45.634;11.704;2023-04-05T14:25:01;14.89;30.96
71647;SHT31;59706;45.634;11.704;2023-04-05T14:27:32;14.99;30.90
71647;SHT31;59706;45.634;11.704;2023-04-05T14:30:05;14.96;30.73
71647;SHT31;59706;45.634;11.704;2023-04-05T14:32:36;14.94;31.34
71647;SHT31;59706;45.634;11.704;2023-04-05T14:35:04;14.91;31.43
71647;SHT31;59706;45.634;11.704;2023-04-05T14:37:36;14.80;31.73
71647;SHT31;59706;45.634;11.704;2023-04-05T14:40:03;14.66;31.96
71647;SHT31;59706;45.634;11.704;2023-04-05T14:42:34;14.51;32.49
71647;SHT31;59706;45.634;11.704;2023-04-05T14:45:02;14.44;32.27
71647;SHT31;59706;45.634;11.704;2023-04-05T14:47:31;14.30;32.08
71647;SHT31;59706;45.634;11.704;2023-04-05T14:49:59;14.21;32.33
71647;SHT31;59706;45.634;11.704;2023-04-05T14:52:27;14.24;32.21
71647;SHT31;59706;45.634;11.704;2023-04-05T14:54:55;14.30;32.23
71647;SHT31;59706;45.634;11.704;2023-04-05T14:57:23;14.16;32.17
71647;SHT31;59706;45.634;11.704;2023-04-05T14:59:50;14.12;32.47
71647;SHT31;59706;45.634;11.704;2023-04-05T15:02:18;14.14;32.90
71647;SHT31;59706;45.634;11.704;2023-04-05T15:04:45;14.20;32.99
71647;SHT31;59706;45.634;11.704;2023-04-05T15:07:13;14.18;32.27
71647;SHT31;59706;45.634;11.704;2023-04-05T15:09:41;14.08;32.54
71647;SHT31;59706;45.634;11.704;2023-04-05T15:12:08;14.03;32.80
71647;SHT31;59706;45.634;11.704;2023-04-05T15:14:37;14.04;32.53
71647;SHT31;59706;45.634;11.704;2023-04-05T15:17:04;14.04;32.78
71647;SHT31;59706;45.634;11.704;2023-04-05T15:19:32;14.02;32.39
71647;SHT31;59706;45.634;11.704;2023-04-05T15:22:00;13.96;32.17
71647;SHT31;59706;45.634;11.704;2023-04-05T15:24:28;13.86;31.83
71647;SHT31;59706;45.634;11.704;2023-04-05T15:26:56;13.77;32.26
71647;SHT31;59706;45.634;11.704;2023-04-05T15:29:26;13.77;32.57
71647;SHT31;59706;45.634;11.704;2023-04-05T15:31:54;13.81;32.22
71647;SHT31;59706;45.634;11.704;2023-04-05T15:34:23;13.73;32.08
71647;SHT31;59706;45.634;11.704;2023-04-05T15:36:51;13.75;31.62
71647;SHT31;59706;45.634;11.704;2023-04-05T15:39:22;13.69;31.43
71647;SHT31;59706;45.634;11.704;2023-04-05T15:41:49;13.69;31.85
71647;SHT31;59706;45.634;11.704;2023-04-05T15:44:16;13.65;31.58
71647;SHT31;59706;45.634;11.704;2023-04-05T15:46:44;13.57;30.93
71647;SHT31;59706;45.634;11.704;2023-04-05T15:49:12;13.49;30.78
71647;SHT31;59706;45.634;11.704;2023-04-05T15:51:39;13.41;31.00
71647;SHT31;59706;45.634;11.704;2023-04-05T15:54:07;13.35;31.19
71647;SHT31;59706;45.634;11.704;2023-04-05T15:56:35;13.31;31.46
71647;SHT31;59706;45.634;11.704;2023-04-05T15:59:02;13.33;31.51
71647;SHT31;59706;45.634;11.704;2023-04-05T16:01:30;13.32;31.28
71647;SHT31;59706;45.634;11.704;2023-04-05T16:03:58;13.36;31.18
71647;SHT31;59706;45.634;11.704;2023-04-05T16:06:25;13.37;30.53
71647;SHT31;59706;45.634;11.704;2023-04-05T16:08:54;13.30;30.75
71647;SHT31;59706;45.634;11.704;2023-04-05T16:11:21;13.26;30.45
71647;SHT31;59706;45.634;11.704;2023-04-05T16:13:48;13.21;30.41
71647;SHT31;59706;45.634;11.704;2023-04-05T16:16:16;13.17;30.00
71647;SHT31;59706;45.634;11.704;2023-04-05T16:18:43;13.15;30.09
71647;SHT31;59706;45.634;11.704;2023-04-05T16:21:11;13.13;30.12
71647;SHT31;59706;45.634;11.704;2023-04-05T16:23:40;13.10;29.85
71647;SHT31;59706;45.634;11.704;2023-04-05T16:26:09;13.10;29.48